CTV736 WIII-WARR
Flight info
| Callsign | CTV736 |
|---|---|
| Flight time | 1h 3m |
| Altitude | 33000 |
| Route | CA T3 BA |
| Aircraft | A320/M-SDE3FGHIRWY/LB1 |
Departure
| Time | 2026-05-04 07:34 |
|---|---|
| Airport | Soekarno-Hatta International Airport (WIII) |
Arrival
| Time | 2026-05-04 08:37 |
|---|---|
| Airport | Juanda International Airport (WARR) |
| Time | Latitude | Longitude | Altitude | Speed | Heading |
|---|---|---|---|---|---|
| 2026-05-04 06:42 | -6.13254 | 106.65261 | 38 ft | 0 kts | 336° |
| 2026-05-04 07:09 | -6.13255 | 106.65261 | 38 ft | 0 kts | 336° |
| 2026-05-04 07:18 | -6.13263 | 106.65265 | 38 ft | 4 kts | 338° |
| 2026-05-04 07:18 | -6.13289 | 106.65273 | 37 ft | 4 kts | 352° |
| 2026-05-04 07:18 | -6.13314 | 106.65272 | 35 ft | 4 kts | 32° |
| 2026-05-04 07:18 | -6.13323 | 106.65263 | 37 ft | 0 kts | 69° |
| 2026-05-04 07:24 | -6.13323 | 106.65264 | 38 ft | 0 kts | 69° |
| 2026-05-04 07:25 | -6.13322 | 106.65266 | 38 ft | 1 kts | 69° |
| 2026-05-04 07:26 | -6.13432 | 106.65641 | 38 ft | 14 kts | 113° |
| 2026-05-04 07:27 | -6.13407 | 106.65738 | 36 ft | 16 kts | 68° |
| 2026-05-04 07:27 | -6.13364 | 106.65847 | 37 ft | 18 kts | 68° |
| 2026-05-04 07:27 | -6.13315 | 106.65969 | 38 ft | 20 kts | 68° |
| 2026-05-04 07:27 | -6.13261 | 106.66104 | 38 ft | 22 kts | 69° |
| 2026-05-04 07:28 | -6.13202 | 106.66251 | 38 ft | 22 kts | 68° |
| 2026-05-04 07:28 | -6.13147 | 106.66389 | 38 ft | 20 kts | 68° |
| 2026-05-04 07:28 | -6.13097 | 106.66513 | 38 ft | 18 kts | 68° |
| 2026-05-04 07:28 | -6.13056 | 106.66614 | 38 ft | 13 kts | 68° |
| 2026-05-04 07:29 | -6.13030 | 106.66680 | 38 ft | 8 kts | 69° |
| 2026-05-04 07:29 | -6.13008 | 106.66735 | 36 ft | 9 kts | 68° |
| 2026-05-04 07:29 | -6.12983 | 106.66799 | 38 ft | 11 kts | 68° |
| 2026-05-04 07:29 | -6.12951 | 106.66878 | 38 ft | 14 kts | 69° |
| 2026-05-04 07:30 | -6.12909 | 106.66986 | 38 ft | 19 kts | 68° |
| 2026-05-04 07:30 | -6.12859 | 106.67112 | 38 ft | 19 kts | 68° |
| 2026-05-04 07:30 | -6.12809 | 106.67233 | 38 ft | 19 kts | 68° |
| 2026-05-04 07:30 | -6.12777 | 106.67331 | 38 ft | 12 kts | 88° |
| 2026-05-04 07:31 | -6.12826 | 106.67380 | 38 ft | 9 kts | 155° |
| 2026-05-04 07:31 | -6.12871 | 106.67399 | 38 ft | 5 kts | 158° |
| 2026-05-04 07:33 | -6.13058 | 106.67348 | 38 ft | 0 kts | 245° |
| 2026-05-04 07:33 | -6.13070 | 106.67317 | 39 ft | 25 kts | 249° |
| 2026-05-04 07:33 | -6.13226 | 106.66922 | 39 ft | 92 kts | 248° |
| 2026-05-04 07:33 | -6.13533 | 106.66155 | 39 ft | 142 kts | 248° |
| 2026-05-04 07:34 | -6.13945 | 106.65119 | 236 ft | 170 kts | 250° |
| 2026-05-04 07:34 | -6.14363 | 106.64009 | 865 ft | 170 kts | 251° |
| 2026-05-04 07:34 | -6.14809 | 106.62900 | 1382 ft | 174 kts | 250° |
| 2026-05-04 07:34 | -6.15293 | 106.61701 | 1657 ft | 197 kts | 250° |
| 2026-05-04 07:35 | -6.15834 | 106.60356 | 1923 ft | 218 kts | 248° |
| 2026-05-04 07:35 | -6.16422 | 106.58896 | 2263 ft | 236 kts | 249° |
| 2026-05-04 07:35 | -6.17109 | 106.57365 | 2845 ft | 248 kts | 237° |
| 2026-05-04 07:35 | -6.18408 | 106.56156 | 3295 ft | 265 kts | 205° |
| 2026-05-04 07:36 | -6.20220 | 106.55774 | 4038 ft | 271 kts | 175° |
| 2026-05-04 07:36 | -6.21994 | 106.56383 | 4830 ft | 275 kts | 143° |
| 2026-05-04 07:38 | -6.24810 | 106.69684 | 10470 ft | 292 kts | 96° |
| 2026-05-04 07:38 | -6.25062 | 106.71718 | 11136 ft | 295 kts | 96° |
| 2026-05-04 07:38 | -6.25321 | 106.73778 | 11808 ft | 298 kts | 97° |
| 2026-05-04 07:38 | -6.25580 | 106.75828 | 12478 ft | 301 kts | 97° |
| 2026-05-04 07:39 | -6.25849 | 106.77954 | 13173 ft | 304 kts | 97° |
| 2026-05-04 07:39 | -6.26115 | 106.80069 | 13820 ft | 307 kts | 97° |
| 2026-05-04 07:39 | -6.26379 | 106.82180 | 14390 ft | 310 kts | 97° |
| 2026-05-04 07:39 | -6.26648 | 106.84339 | 14967 ft | 312 kts | 97° |
| 2026-05-04 07:40 | -6.26924 | 106.86542 | 15545 ft | 315 kts | 97° |
| 2026-05-04 07:40 | -6.27357 | 106.88713 | 16099 ft | 319 kts | 108° |
| 2026-05-04 07:40 | -6.28249 | 106.90769 | 16327 ft | 334 kts | 117° |
| 2026-05-04 07:40 | -6.29363 | 106.92885 | 16453 ft | 351 kts | 117° |
| 2026-05-04 07:41 | -6.30531 | 106.95091 | 16704 ft | 362 kts | 117° |
| 2026-05-04 07:41 | -6.31721 | 106.97344 | 17156 ft | 367 kts | 117° |
| 2026-05-04 07:41 | -6.32920 | 106.99624 | 17674 ft | 370 kts | 117° |
| 2026-05-04 07:41 | -6.34124 | 107.01922 | 18176 ft | 373 kts | 117° |
| 2026-05-04 07:42 | -6.35342 | 107.04244 | 18609 ft | 376 kts | 117° |
| 2026-05-04 07:42 | -6.36567 | 107.06577 | 19056 ft | 378 kts | 117° |
| 2026-05-04 07:42 | -6.37797 | 107.08922 | 19502 ft | 380 kts | 117° |
| 2026-05-04 07:42 | -6.38614 | 107.10481 | 19803 ft | 382 kts | 117° |
| 2026-05-04 07:43 | -6.39853 | 107.12849 | 20253 ft | 384 kts | 117° |
| 2026-05-04 07:43 | -6.41105 | 107.15238 | 20676 ft | 387 kts | 117° |
| 2026-05-04 07:43 | -6.42363 | 107.17641 | 21103 ft | 390 kts | 117° |
| 2026-05-04 07:43 | -6.43629 | 107.20059 | 21508 ft | 392 kts | 117° |
| 2026-05-04 07:44 | -6.45311 | 107.23282 | 22053 ft | 395 kts | 117° |
| 2026-05-04 07:44 | -6.46178 | 107.24944 | 22332 ft | 397 kts | 117° |
| 2026-05-04 07:44 | -6.47467 | 107.27409 | 22734 ft | 399 kts | 117° |
| 2026-05-04 07:44 | -6.48769 | 107.29895 | 23124 ft | 402 kts | 117° |
| 2026-05-04 07:45 | -6.50060 | 107.32358 | 23480 ft | 405 kts | 117° |
| 2026-05-04 07:45 | -6.51373 | 107.34866 | 23801 ft | 407 kts | 117° |
| 2026-05-04 07:45 | -6.52713 | 107.37430 | 24121 ft | 409 kts | 117° |
| 2026-05-04 07:45 | -6.54023 | 107.39938 | 24441 ft | 412 kts | 117° |
| 2026-05-04 07:46 | -6.55362 | 107.42498 | 24736 ft | 415 kts | 116° |
| 2026-05-04 07:46 | -6.56450 | 107.45183 | 25037 ft | 416 kts | 106° |
| 2026-05-04 07:46 | -6.57044 | 107.48036 | 25338 ft | 418 kts | 96° |
| 2026-05-04 07:46 | -6.57376 | 107.50941 | 25649 ft | 420 kts | 96° |
| 2026-05-04 07:47 | -6.57717 | 107.53868 | 25961 ft | 422 kts | 96° |
| 2026-05-04 07:47 | -6.58065 | 107.56806 | 26269 ft | 424 kts | 96° |
| 2026-05-04 07:47 | -6.58420 | 107.59753 | 26581 ft | 426 kts | 96° |
| 2026-05-04 07:49 | -6.60942 | 107.80830 | 28665 ft | 441 kts | 96° |
| 2026-05-04 07:49 | -6.61306 | 107.83899 | 28933 ft | 443 kts | 96° |
| 2026-05-04 07:49 | -6.61671 | 107.86983 | 29221 ft | 445 kts | 96° |
| 2026-05-04 07:50 | -6.62038 | 107.90080 | 29477 ft | 447 kts | 96° |
| 2026-05-04 07:50 | -6.62409 | 107.93193 | 29774 ft | 450 kts | 96° |
| 2026-05-04 07:50 | -6.62785 | 107.96328 | 30052 ft | 451 kts | 96° |
| 2026-05-04 07:50 | -6.63158 | 107.99466 | 30249 ft | 453 kts | 96° |
| 2026-05-04 07:51 | -6.63531 | 108.02622 | 30454 ft | 455 kts | 96° |
| 2026-05-04 07:51 | -6.63906 | 108.05781 | 30662 ft | 456 kts | 96° |
| 2026-05-04 07:51 | -6.64275 | 108.08918 | 30853 ft | 458 kts | 96° |
| 2026-05-04 07:51 | -6.64648 | 108.12107 | 31055 ft | 459 kts | 96° |
| 2026-05-04 07:52 | -6.65024 | 108.15301 | 31268 ft | 461 kts | 96° |
| 2026-05-04 07:52 | -6.65404 | 108.18501 | 31528 ft | 460 kts | 96° |
| 2026-05-04 07:52 | -6.65785 | 108.21698 | 31823 ft | 460 kts | 96° |
| 2026-05-04 07:52 | -6.66162 | 108.24894 | 32109 ft | 459 kts | 96° |
| 2026-05-04 07:53 | -6.66534 | 108.28079 | 32389 ft | 459 kts | 95° |
| 2026-05-04 07:54 | -6.69086 | 108.49824 | 32874 ft | 439 kts | 95° |
| 2026-05-04 07:55 | -6.69800 | 108.55926 | 32874 ft | 439 kts | 96° |
| 2026-05-04 07:55 | -6.70643 | 108.62009 | 32866 ft | 439 kts | 98° |
| 2026-05-04 07:56 | -6.71619 | 108.68033 | 32864 ft | 439 kts | 98° |
| 2026-05-04 07:56 | -6.72595 | 108.74092 | 32858 ft | 439 kts | 98° |
| 2026-05-04 07:57 | -6.73532 | 108.80158 | 32854 ft | 439 kts | 97° |
| 2026-05-04 07:57 | -6.74452 | 108.86228 | 32850 ft | 439 kts | 97° |
| 2026-05-04 07:58 | -6.75379 | 108.92301 | 32849 ft | 439 kts | 97° |
| 2026-05-04 07:58 | -6.76310 | 108.98382 | 32851 ft | 439 kts | 98° |
| 2026-05-04 07:59 | -6.77240 | 109.04461 | 32853 ft | 440 kts | 97° |
| 2026-05-04 07:59 | -6.78161 | 109.10495 | 32853 ft | 440 kts | 97° |
| 2026-05-04 08:00 | -6.79092 | 109.16578 | 32861 ft | 439 kts | 97° |
| 2026-05-04 08:02 | -6.82790 | 109.40851 | 32854 ft | 438 kts | 97° |
| 2026-05-04 08:02 | -6.83707 | 109.46868 | 32848 ft | 437 kts | 98° |
| 2026-05-04 08:03 | -6.84627 | 109.52918 | 32843 ft | 438 kts | 97° |
| 2026-05-04 08:03 | -6.85546 | 109.58976 | 32840 ft | 438 kts | 97° |
| 2026-05-04 08:04 | -6.86464 | 109.65032 | 32840 ft | 438 kts | 97° |
| 2026-05-04 08:04 | -6.87382 | 109.71085 | 32857 ft | 438 kts | 97° |
| 2026-05-04 08:05 | -6.88301 | 109.77143 | 32856 ft | 437 kts | 97° |
| 2026-05-04 08:05 | -6.89214 | 109.83199 | 32855 ft | 437 kts | 97° |
| 2026-05-04 08:06 | -6.90125 | 109.89246 | 32852 ft | 437 kts | 97° |
| 2026-05-04 08:06 | -6.91035 | 109.95265 | 32848 ft | 437 kts | 97° |
| 2026-05-04 08:08 | -6.94672 | 110.19423 | 32829 ft | 437 kts | 97° |
| 2026-05-04 08:11 | -6.97624 | 110.46699 | 32825 ft | 435 kts | 90° |
| 2026-05-04 08:11 | -6.97794 | 110.55829 | 32824 ft | 434 kts | 90° |
| 2026-05-04 08:12 | -6.97905 | 110.61911 | 32818 ft | 434 kts | 90° |
| 2026-05-04 08:12 | -6.98011 | 110.67993 | 32812 ft | 434 kts | 90° |
| 2026-05-04 08:13 | -6.98119 | 110.74031 | 32815 ft | 434 kts | 90° |
| 2026-05-04 08:13 | -6.98218 | 110.80149 | 32817 ft | 434 kts | 90° |
| 2026-05-04 08:14 | -6.98325 | 110.86184 | 32825 ft | 433 kts | 90° |
| 2026-05-04 08:16 | -6.98753 | 111.10676 | 32828 ft | 450 kts | 90° |
| 2026-05-04 08:16 | -6.98853 | 111.16985 | 32829 ft | 451 kts | 91° |
| 2026-05-04 08:17 | -6.98955 | 111.23288 | 32833 ft | 451 kts | 90° |
| 2026-05-04 08:17 | -6.99060 | 111.29603 | 32829 ft | 451 kts | 91° |
| 2026-05-04 08:19 | -7.01620 | 111.50180 | 27033 ft | 406 kts | 105° |
| 2026-05-04 08:19 | -7.02385 | 111.52892 | 26173 ft | 400 kts | 105° |
| 2026-05-04 08:20 | -7.03142 | 111.55577 | 25333 ft | 395 kts | 105° |
| 2026-05-04 08:20 | -7.03888 | 111.58223 | 24530 ft | 391 kts | 105° |
| 2026-05-04 08:20 | -7.04627 | 111.60838 | 23747 ft | 386 kts | 105° |
| 2026-05-04 08:20 | -7.05364 | 111.63435 | 22908 ft | 382 kts | 105° |
| 2026-05-04 08:21 | -7.06088 | 111.65988 | 22041 ft | 378 kts | 105° |
| 2026-05-04 08:21 | -7.06804 | 111.68524 | 21206 ft | 374 kts | 105° |
| 2026-05-04 08:21 | -7.07512 | 111.71027 | 20431 ft | 369 kts | 105° |
| 2026-05-04 08:21 | -7.08211 | 111.73498 | 19789 ft | 362 kts | 105° |
| 2026-05-04 08:22 | -7.08881 | 111.75866 | 19354 ft | 350 kts | 106° |
| 2026-05-04 08:22 | -7.09546 | 111.78210 | 18920 ft | 338 kts | 106° |
| 2026-05-04 08:24 | -7.13710 | 111.92957 | 16174 ft | 307 kts | 105° |
| 2026-05-04 08:24 | -7.14295 | 111.95027 | 15860 ft | 306 kts | 105° |
| 2026-05-04 08:24 | -7.14873 | 111.97060 | 15727 ft | 299 kts | 105° |
| 2026-05-04 08:24 | -7.15438 | 111.99048 | 15573 ft | 293 kts | 105° |
| 2026-05-04 08:25 | -7.16132 | 112.00970 | 15381 ft | 294 kts | 112° |
| 2026-05-04 08:25 | -7.16937 | 112.02855 | 15093 ft | 292 kts | 112° |
| 2026-05-04 08:25 | -7.17743 | 112.04731 | 14817 ft | 291 kts | 112° |
| 2026-05-04 08:25 | -7.18543 | 112.06594 | 14344 ft | 288 kts | 112° |
| 2026-05-04 08:26 | -7.19337 | 112.08443 | 13842 ft | 287 kts | 112° |
| 2026-05-04 08:27 | -7.24741 | 112.21068 | 11248 ft | 276 kts | 113° |
| 2026-05-04 08:28 | -7.25494 | 112.22839 | 10951 ft | 275 kts | 113° |
| 2026-05-04 08:28 | -7.26244 | 112.24600 | 10666 ft | 273 kts | 113° |
| 2026-05-04 08:28 | -7.26993 | 112.26351 | 10358 ft | 272 kts | 113° |
| 2026-05-04 08:28 | -7.27737 | 112.28089 | 9916 ft | 269 kts | 113° |
| 2026-05-04 08:29 | -7.28475 | 112.29819 | 9352 ft | 267 kts | 113° |
| 2026-05-04 08:29 | -7.28960 | 112.30956 | 8975 ft | 266 kts | 113° |
| 2026-05-04 08:29 | -7.29650 | 112.32669 | 8399 ft | 264 kts | 107° |
| 2026-05-04 08:31 | -7.32184 | 112.45097 | 5620 ft | 254 kts | 102° |
| 2026-05-04 08:33 | -7.34404 | 112.56461 | 4138 ft | 227 kts | 99° |
| 2026-05-04 08:33 | -7.34651 | 112.58014 | 3825 ft | 226 kts | 99° |
| 2026-05-04 08:35 | -7.36404 | 112.68958 | 1633 ft | 222 kts | 98° |
| 2026-05-04 08:35 | -7.36643 | 112.70421 | 1342 ft | 203 kts | 98° |
| 2026-05-04 08:35 | -7.36861 | 112.71767 | 1093 ft | 185 kts | 98° |
| 2026-05-04 08:35 | -7.37061 | 112.72998 | 878 ft | 171 kts | 98° |
| 2026-05-04 08:37 | -7.37945 | 112.78466 | 8 ft | 34 kts | 101° |
| 2026-05-04 08:37 | -7.37960 | 112.78547 | 9 ft | 18 kts | 100° |
| 2026-05-04 08:37 | -7.37989 | 112.78734 | 10 ft | 29 kts | 98° |
| 2026-05-04 08:38 | -7.38022 | 112.78932 | 10 ft | 29 kts | 99° |
| 2026-05-04 08:38 | -7.38049 | 112.79108 | 11 ft | 23 kts | 97° |
| 2026-05-04 08:38 | -7.38029 | 112.79254 | 11 ft | 18 kts | 78° |
| 2026-05-04 08:40 | -7.37697 | 112.79635 | 9 ft | 7 kts | 42° |
| 2026-05-04 08:40 | -7.37664 | 112.79639 | 9 ft | 4 kts | 2° |
| 2026-05-04 08:40 | -7.37644 | 112.79642 | 9 ft | 2 kts | 9° |
| 2026-05-04 08:41 | -7.37631 | 112.79644 | 9 ft | 1 kts | 9° |
| 2026-05-04 08:41 | -7.37624 | 112.79645 | 9 ft | 0 kts | 9° |
| 2026-05-04 08:41 | -7.37623 | 112.79645 | 9 ft | 0 kts | 9° |
| 2026-05-04 08:41 | -7.37619 | 112.79646 | 9 ft | 0 kts | 9° |